Time;durP1;ratioP1;P1;durP2;ratioP2;P2;SDS_P1;SDS_P2;PMS_P1;PMS_P2;Temp;Humidity;BMP_temperature;BMP_pressure;BME280_temperature;BME280_humidity;BME280_pressure;Samples;Min_cycle;Max_cycle;Signal;HPM_P1;HPM_P2
2023/04/21 00:00:00;;;;;;;2.80;2.80;;;18.70;60.40;;;;;;5067077;28;43427;-77
2023/04/21 00:02:29;;;;;;;2.60;2.60;;;18.70;60.50;;;;;;5069856;28;43588;-74
2023/04/21 00:04:57;;;;;;;2.87;2.87;;;18.60;60.70;;;;;;5070614;27;44620;-77
2023/04/21 00:07:25;;;;;;;2.67;2.57;;;18.50;60.70;;;;;;5066055;28;43460;-76
2023/04/21 00:09:53;;;;;;;2.97;2.87;;;18.40;60.90;;;;;;5066042;28;43466;-77
2023/04/21 00:12:24;;;;;;;3.10;3.00;;;18.30;61.20;;;;;;5064082;28;44842;-76
2023/04/21 00:14:51;;;;;;;2.70;2.70;;;18.30;61.90;;;;;;5067144;28;43618;-76
2023/04/21 00:17:21;;;;;;;2.80;2.70;;;18.30;61.80;;;;;;5064713;28;43511;-76
2023/04/21 00:19:49;;;;;;;2.90;2.90;;;18.20;62.30;;;;;;5063814;28;43938;-73
2023/04/21 00:22:18;;;;;;;3.20;3.10;;;18.20;61.70;;;;;;5065685;28;43943;-75
2023/04/21 00:24:46;;;;;;;2.90;2.90;;;18.20;61.80;;;;;;5066041;28;43500;-77
2023/04/21 00:27:15;;;;;;;2.80;2.80;;;18.10;62.10;;;;;;5062727;28;43495;-77
2023/04/21 00:29:43;;;;;;;2.97;2.97;;;18.10;62.40;;;;;;5064406;28;43617;-76
2023/04/21 00:32:12;;;;;;;3.03;2.93;;;18.20;62.10;;;;;;5065843;28;44680;-76
2023/04/21 00:34:41;;;;;;;2.60;2.60;;;18.30;61.90;;;;;;5063905;28;44656;-77
2023/04/21 00:37:09;;;;;;;2.97;2.97;;;18.30;61.70;;;;;;5068354;28;43406;-76
2023/04/21 00:39:38;;;;;;;3.30;3.20;;;18.30;61.50;;;;;;5069869;28;43537;-76
2023/04/21 00:42:06;;;;;;;2.73;2.73;;;18.30;62.70;;;;;;5067735;28;45775;-77
2023/04/21 00:44:35;;;;;;;3.27;3.17;;;18.30;61.90;;;;;;5069200;28;43589;-77
2023/04/21 00:47:05;;;;;;;3.00;2.90;;;18.30;61.70;;;;;;5068638;28;43992;-76
2023/04/21 00:49:34;;;;;;;2.73;2.73;;;18.20;61.60;;;;;;5068134;28;43438;-76
2023/04/21 00:52:04;;;;;;;2.73;2.73;;;18.20;61.60;;;;;;5067555;28;45202;-76
2023/04/21 00:54:32;;;;;;;2.77;2.77;;;18.10;61.60;;;;;;5067501;28;44746;-72
2023/04/21 00:57:04;;;;;;;3.20;3.10;;;18.10;62.20;;;;;;5068104;28;43886;-72
2023/04/21 00:59:31;;;;;;;3.00;2.90;;;18.10;62.20;;;;;;5068054;28;43475;-74
2023/04/21 01:02:01;;;;;;;3.20;3.10;;;18.10;62.10;;;;;;5050848;28;46176;-70
2023/04/21 01:04:34;;;;;;;2.60;2.60;;;18.10;62.00;;;;;;5057932;28;44663;-69
2023/04/21 01:07:06;;;;;;;2.90;2.90;;;18.00;62.00;;;;;;5060061;28;43370;-70
2023/04/21 01:09:34;;;;;;;3.30;3.20;;;18.00;62.20;;;;;;5051387;28;43530;-70
2023/04/21 01:12:05;;;;;;;3.00;2.90;;;18.00;62.60;;;;;;5054227;28;46862;-70
2023/04/21 01:14:34;;;;;;;3.17;3.07;;;18.10;62.50;;;;;;5055026;28;43948;-70
2023/04/21 01:17:04;;;;;;;3.17;3.07;;;18.20;62.10;;;;;;5051817;28;43429;-70
2023/04/21 01:19:33;;;;;;;3.50;3.40;;;18.20;61.90;;;;;;5056800;28;43940;-71
2023/04/21 01:22:02;;;;;;;3.20;3.10;;;18.20;61.70;;;;;;5057319;28;43755;-71
2023/04/21 01:24:37;;;;;;;3.13;3.03;;;18.20;62.10;;;;;;5053188;28;43803;-70
2023/04/21 01:27:09;;;;;;;2.90;2.90;;;18.20;62.20;;;;;;5059680;28;43829;-69
2023/04/21 01:29:37;;;;;;;3.03;3.03;;;18.10;61.90;;;;;;5060530;28;43516;-69
2023/04/21 01:32:06;;;;;;;3.07;3.07;;;18.10;61.90;;;;;;5054375;28;45735;-69
2023/04/21 01:34:34;;;;;;;3.00;3.00;;;18.10;61.90;;;;;;5059245;28;44755;-69
2023/04/21 01:37:06;;;;;;;3.27;3.17;;;18.00;62.00;;;;;;5055534;28;43382;-69
2023/04/21 01:39:34;;;;;;;3.00;3.00;;;18.00;62.50;;;;;;5058354;28;43450;-70
2023/04/21 01:42:02;;;;;;;2.93;2.93;;;18.00;62.30;;;;;;5055570;28;43937;-70
2023/04/21 01:44:30;;;;;;;2.93;2.93;;;18.00;62.20;;;;;;5056428;28;43421;-69
2023/04/21 01:46:58;;;;;;;3.40;3.30;;;18.00;62.60;;;;;;5055142;28;43462;-69
2023/04/21 01:49:28;;;;;;;3.10;3.03;;;18.00;62.30;;;;;;5055734;28;43482;-70
2023/04/21 01:51:57;;;;;;;4.03;3.70;;;17.90;62.30;;;;;;5054626;28;45005;-69
2023/04/21 01:54:26;;;;;;;3.00;2.90;;;17.90;62.50;;;;;;5061295;28;44620;-69
2023/04/21 01:56:55;;;;;;;3.20;3.10;;;18.00;62.60;;;;;;5058504;28;43891;-69
2023/04/21 01:59:25;;;;;;;3.10;3.10;;;18.10;62.20;;;;;;5058210;28;43509;-69
2023/04/21 02:01:53;;;;;;;3.17;3.10;;;18.10;62.10;;;;;;5053513;28;43927;-70
2023/04/21 02:04:21;;;;;;;3.50;3.40;;;18.10;61.80;;;;;;5052540;28;45011;-69
2023/04/21 02:06:49;;;;;;;3.37;3.17;;;18.10;62.00;;;;;;5054133;28;43690;-69
2023/04/21 02:09:17;;;;;;;3.30;3.20;;;18.10;62.10;;;;;;5055147;28;43477;-69
2023/04/21 02:11:47;;;;;;;3.17;3.17;;;18.10;61.90;;;;;;5055888;28;45562;-70
2023/04/21 02:14:16;;;;;;;3.10;3.10;;;18.10;61.80;;;;;;5057081;28;44674;-70
2023/04/21 02:16:44;;;;;;;2.87;2.87;;;18.00;61.80;;;;;;5053857;28;43443;-69
2023/04/21 02:19:13;;;;;;;3.63;3.53;;;18.00;61.90;;;;;;5054051;28;43438;-69
2023/04/21 02:21:40;;;;;;;3.33;3.23;;;18.00;62.30;;;;;;5054339;28;44215;-71
2023/04/21 02:24:08;;;;;;;3.40;3.30;;;18.00;62.20;;;;;;5061305;27;45040;-70
2023/04/21 02:26:36;;;;;;;3.10;3.10;;;18.00;62.00;;;;;;5054732;28;43909;-69
2023/04/21 02:29:06;;;;;;;3.43;3.33;;;18.00;62.10;;;;;;5054719;28;43391;-69
2023/04/21 02:31:33;;;;;;;3.40;3.30;;;18.00;62.10;;;;;;5053516;28;43897;-69
2023/04/21 02:34:17;;;;;;;3.97;3.87;;;18.00;62.20;;;;;;5063177;28;43956;-69
2023/04/21 02:36:45;;;;;;;3.70;3.50;;;17.90;62.30;;;;;;5049211;28;43384;-69
2023/04/21 02:39:13;;;;;;;3.67;3.57;;;18.00;62.30;;;;;;5058486;28;43442;-70
2023/04/21 02:41:41;;;;;;;3.67;3.57;;;18.10;62.10;;;;;;5059559;28;43873;-70
2023/04/21 02:44:14;;;;;;;3.33;3.23;;;18.20;61.90;;;;;;5060315;28;43363;-69
2023/04/21 02:46:42;;;;;;;3.30;3.20;;;18.20;61.70;;;;;;5052335;28;43438;-69
2023/04/21 02:49:10;;;;;;;3.80;3.70;;;18.20;61.60;;;;;;5053646;28;44021;-69
2023/04/21 02:51:39;;;;;;;3.60;3.50;;;18.10;61.90;;;;;;5052469;28;43875;-70
2023/04/21 02:54:07;;;;;;;3.60;3.50;;;18.10;61.80;;;;;;5052865;28;43991;-69
2023/04/21 02:56:35;;;;;;;3.43;3.33;;;18.10;61.70;;;;;;5055491;28;43406;-70
2023/04/21 02:59:03;;;;;;;3.23;3.20;;;18.10;61.80;;;;;;5061074;28;43422;-69
2023/04/21 03:01:32;;;;;;;3.43;3.33;;;18.10;61.90;;;;;;5058193;28;43586;-70
2023/04/21 03:04:01;;;;;;;3.60;3.50;;;18.00;62.00;;;;;;5058917;28;44693;-70
2023/04/21 03:06:32;;;;;;;3.67;3.57;;;18.00;62.20;;;;;;5056969;28;43447;-71
2023/04/21 03:09:02;;;;;;;3.60;3.50;;;18.00;62.10;;;;;;5050932;28;43853;-70
2023/04/21 03:11:30;;;;;;;3.27;3.27;;;18.00;62.20;;;;;;5052082;28;45093;-70
2023/04/21 03:13:58;;;;;;;3.60;3.50;;;18.00;62.20;;;;;;5054147;28;43486;-70
2023/04/21 03:16:28;;;;;;;3.73;3.63;;;18.00;62.20;;;;;;5049383;28;43932;-70
2023/04/21 03:18:57;;;;;;;3.97;3.87;;;17.90;62.20;;;;;;5067057;28;43555;-70
2023/04/21 03:21:25;;;;;;;3.50;3.40;;;17.90;62.30;;;;;;5051770;28;43766;-70
2023/04/21 03:23:53;;;;;;;3.70;3.60;;;17.90;62.20;;;;;;5057854;28;43404;-69
2023/04/21 03:26:21;;;;;;;3.57;3.47;;;17.90;62.20;;;;;;5058552;28;43860;-69
2023/04/21 03:28:49;;;;;;;3.13;3.13;;;17.90;62.20;;;;;;5051897;28;43433;-69
2023/04/21 03:31:17;;;;;;;3.67;3.57;;;17.90;62.20;;;;;;5058832;28;45731;-69
2023/04/21 03:33:45;;;;;;;4.03;3.83;;;17.90;62.40;;;;;;5063007;28;43506;-69
2023/04/21 03:36:14;;;;;;;3.90;3.80;;;17.90;62.40;;;;;;5056378;28;43643;-69
2023/04/21 03:38:42;;;;;;;3.77;3.67;;;18.00;62.30;;;;;;5059651;28;43498;-69
2023/04/21 03:41:10;;;;;;;3.60;3.50;;;18.10;62.00;;;;;;5051581;28;45740;-69
2023/04/21 03:43:38;;;;;;;3.87;3.77;;;18.10;61.60;;;;;;5053179;28;45107;-70
2023/04/21 03:46:06;;;;;;;3.50;3.40;;;18.10;61.60;;;;;;5064915;28;43410;-69
2023/04/21 03:48:34;;;;;;;3.73;3.63;;;18.10;62.00;;;;;;5066904;28;43508;-69
2023/04/21 03:51:02;;;;;;;3.47;3.37;;;18.10;62.60;;;;;;5059807;28;43882;-70
2023/04/21 03:53:32;;;;;;;3.73;3.63;;;18.00;61.50;;;;;;5066529;28;43754;-69
2023/04/21 03:56:00;;;;;;;3.03;3.03;;;18.00;61.70;;;;;;5066615;28;43975;-70
2023/04/21 03:58:28;;;;;;;3.57;3.47;;;18.00;61.90;;;;;;5065699;28;43545;-69
2023/04/21 04:00:56;;;;;;;3.87;3.77;;;17.90;61.80;;;;;;5066125;28;43947;-69
2023/04/21 04:03:24;;;;;;;3.37;3.30;;;17.90;62.20;;;;;;5065938;28;43453;-70
2023/04/21 04:05:52;;;;;;;3.83;3.73;;;17.90;62.00;;;;;;5064693;28;43592;-69
2023/04/21 04:08:20;;;;;;;3.50;3.40;;;17.90;61.90;;;;;;5066930;28;43375;-69
2023/04/21 04:10:49;;;;;;;3.27;3.23;;;17.90;62.10;;;;;;5065408;28;43902;-69
2023/04/21 04:13:17;;;;;;;3.60;3.50;;;17.90;62.20;;;;;;5065868;28;43449;-68
2023/04/21 04:15:47;;;;;;;3.73;3.63;;;17.90;62.20;;;;;;5070496;28;44460;-68
2023/04/21 04:18:15;;;;;;;3.70;3.60;;;17.80;62.50;;;;;;5066171;28;43521;-69
2023/04/21 04:20:45;;;;;;;3.53;3.43;;;17.90;62.50;;;;;;5064488;28;46306;-69
2023/04/21 04:23:13;;;;;;;3.77;3.67;;;18.00;62.10;;;;;;5066058;28;43944;-69
2023/04/21 04:25:41;;;;;;;3.60;3.50;;;18.10;62.00;;;;;;5065878;28;43477;-69
2023/04/21 04:28:11;;;;;;;3.43;3.33;;;18.10;61.60;;;;;;5065894;28;43558;-69
2023/04/21 04:30:42;;;;;;;3.33;3.27;;;18.10;61.70;;;;;;5062274;28;43848;-69
2023/04/21 04:33:11;;;;;;;3.60;3.50;;;18.00;62.00;;;;;;5059453;28;43522;-71
2023/04/21 04:35:39;;;;;;;3.50;3.40;;;18.00;61.80;;;;;;5056518;28;43457;-70
2023/04/21 04:38:07;;;;;;;3.77;3.67;;;18.00;61.70;;;;;;5058859;28;43543;-69
2023/04/21 04:40:35;;;;;;;3.27;3.27;;;18.00;61.80;;;;;;5058417;28;43828;-70
2023/04/21 04:43:07;;;;;;;3.37;3.27;;;18.00;62.00;;;;;;5065663;28;43418;-70
2023/04/21 04:45:37;;;;;;;3.70;3.60;;;18.00;62.20;;;;;;5063260;28;43380;-69
2023/04/21 04:48:06;;;;;;;3.53;3.43;;;17.90;62.20;;;;;;5066054;28;43502;-69
2023/04/21 04:50:34;;;;;;;3.40;3.30;;;17.90;61.90;;;;;;5065819;28;43857;-70
2023/04/21 04:53:02;;;;;;;4.10;4.00;;;17.90;62.10;;;;;;5064303;28;43444;-70
2023/04/21 04:55:30;;;;;;;3.60;3.50;;;18.00;62.30;;;;;;5058773;28;43369;-69
2023/04/21 04:57:58;;;;;;;4.10;4.00;;;17.90;62.20;;;;;;5057279;28;43459;-70
2023/04/21 05:00:27;;;;;;;4.10;4.00;;;17.90;61.90;;;;;;5054446;28;46108;-70
2023/04/21 05:02:56;;;;;;;4.20;4.10;;;17.90;61.80;;;;;;5061969;28;44987;-69
2023/04/21 05:05:25;;;;;;;4.17;4.07;;;17.90;61.70;;;;;;5057627;28;43419;-70
2023/04/21 05:07:53;;;;;;;3.80;3.70;;;17.90;61.80;;;;;;5064531;28;43417;-70
2023/04/21 05:10:21;;;;;;;3.70;3.60;;;17.90;61.90;;;;;;5062900;28;45665;-70
2023/04/21 05:12:49;;;;;;;3.80;3.70;;;17.90;61.90;;;;;;5068081;28;43931;-69
2023/04/21 05:15:17;;;;;;;4.40;4.30;;;17.90;61.90;;;;;;5063947;28;43380;-69
2023/04/21 05:17:45;;;;;;;4.03;3.93;;;17.90;62.00;;;;;;5064821;28;43422;-70
2023/04/21 05:20:14;;;;;;;3.90;3.80;;;18.00;62.00;;;;;;5062757;28;44176;-70
2023/04/21 05:22:42;;;;;;;4.17;4.07;;;18.10;61.70;;;;;;5066681;28;43454;-70
2023/04/21 05:25:11;;;;;;;4.00;3.90;;;18.20;61.50;;;;;;5068733;28;44066;-70
2023/04/21 05:27:38;;;;;;;3.70;3.60;;;18.20;61.10;;;;;;5062478;28;43528;-70
2023/04/21 05:30:07;;;;;;;4.40;4.30;;;18.10;61.10;;;;;;5068774;28;43913;-70
2023/04/21 05:32:35;;;;;;;4.10;4.00;;;18.10;61.50;;;;;;5068902;28;43387;-69
2023/04/21 05:35:04;;;;;;;3.63;3.53;;;18.10;61.30;;;;;;5068716;28;43433;-70
2023/04/21 05:37:33;;;;;;;3.80;3.70;;;18.10;61.30;;;;;;5068916;28;43843;-70
2023/04/21 05:40:01;;;;;;;3.93;3.83;;;18.00;61.40;;;;;;5068592;28;43930;-71
2023/04/21 05:42:29;;;;;;;4.40;4.20;;;18.00;61.50;;;;;;5069014;28;43999;-70
2023/04/21 05:44:57;;;;;;;4.27;4.17;;;18.00;61.70;;;;;;5067324;28;43400;-70
2023/04/21 05:47:25;;;;;;;3.93;3.83;;;17.90;61.80;;;;;;5068939;28;43476;-69
2023/04/21 05:49:53;;;;;;;4.20;4.10;;;17.90;61.60;;;;;;5068470;28;43612;-70
2023/04/21 05:52:21;;;;;;;4.23;4.13;;;17.90;61.70;;;;;;5068325;28;43466;-70
2023/04/21 05:54:54;;;;;;;4.20;4.10;;;17.90;61.80;;;;;;5068141;28;43507;-70
2023/04/21 05:57:21;;;;;;;4.30;4.20;;;17.90;62.00;;;;;;5068954;28;43507;-69
2023/04/21 05:59:50;;;;;;;4.30;4.20;;;17.90;62.00;;;;;;5068199;28;43946;-68
2023/04/21 06:02:18;;;;;;;4.13;4.03;;;17.90;62.00;;;;;;5067753;28;43423;-68
2023/04/21 06:04:46;;;;;;;3.90;3.80;;;17.90;61.90;;;;;;5068141;28;43414;-70
2023/04/21 06:07:16;;;;;;;3.47;3.37;;;17.80;61.90;;;;;;5073248;28;43548;-69
2023/04/21 06:09:51;;;;;;;3.83;3.73;;;17.80;61.90;;;;;;5068978;27;44107;-70
2023/04/21 06:12:19;;;;;;;4.00;3.90;;;17.80;61.90;;;;;;5067841;28;43510;-69
2023/04/21 06:14:47;;;;;;;3.87;3.77;;;17.80;62.00;;;;;;5068241;28;43434;-69
2023/04/21 06:17:17;;;;;;;4.00;3.90;;;17.90;62.10;;;;;;5068175;28;43460;-70
2023/04/21 06:19:47;;;;;;;3.87;3.77;;;18.00;62.00;;;;;;5062536;28;43941;-69
2023/04/21 06:22:14;;;;;;;3.80;3.70;;;18.00;61.60;;;;;;5083406;27;45212;-70
2023/04/21 06:24:42;;;;;;;3.97;3.87;;;18.10;61.40;;;;;;5062604;28;43391;-69
2023/04/21 06:27:12;;;;;;;3.83;3.73;;;18.10;61.20;;;;;;5058924;28;43409;-70
2023/04/21 06:29:41;;;;;;;4.20;4.10;;;18.10;61.50;;;;;;5061504;28;43941;-70
2023/04/21 06:32:09;;;;;;;3.80;3.70;;;18.10;61.60;;;;;;5067357;28;43434;-70
2023/04/21 06:34:37;;;;;;;3.60;3.50;;;18.00;61.30;;;;;;5066687;28;43582;-70
2023/04/21 06:37:05;;;;;;;3.60;3.50;;;18.00;62.20;;;;;;5068256;28;43439;-69
2023/04/21 06:39:33;;;;;;;3.50;3.40;;;18.00;61.60;;;;;;5066133;28;46109;-70
2023/04/21 06:42:01;;;;;;;3.73;3.63;;;17.90;61.60;;;;;;5066162;28;43656;-70
2023/04/21 06:44:31;;;;;;;3.90;3.80;;;17.90;61.90;;;;;;5068172;28;43362;-69
2023/04/21 06:46:59;;;;;;;3.90;3.80;;;17.90;61.80;;;;;;5068104;28;43490;-69
2023/04/21 06:49:27;;;;;;;3.77;3.67;;;17.90;61.80;;;;;;5067808;28;44524;-69
2023/04/21 06:51:55;;;;;;;3.50;3.40;;;17.90;61.90;;;;;;5065999;28;44452;-69
2023/04/21 06:54:23;;;;;;;3.60;3.50;;;17.90;62.00;;;;;;5067427;28;43422;-69
2023/04/21 06:56:51;;;;;;;3.83;3.73;;;17.90;62.10;;;;;;5068268;28;43926;-70
2023/04/21 06:59:18;;;;;;;3.83;3.73;;;17.80;62.20;;;;;;5067226;28;43856;-70
2023/04/21 07:01:51;;;;;;;3.23;3.13;;;17.80;62.10;;;;;;5065233;28;44224;-69
2023/04/21 07:04:19;;;;;;;3.73;3.63;;;17.80;62.10;;;;;;5070481;28;43347;-70
2023/04/21 07:06:49;;;;;;;3.30;3.20;;;17.80;62.10;;;;;;5065855;28;43490;-69
2023/04/21 07:09:17;;;;;;;3.93;3.83;;;17.80;62.40;;;;;;5066743;28;43991;-70
2023/04/21 07:11:48;;;;;;;4.10;4.00;;;17.80;62.30;;;;;;5067209;28;43476;-70
2023/04/21 07:14:16;;;;;;;3.53;3.43;;;17.80;62.30;;;;;;5067059;28;43434;-70
2023/04/21 07:16:44;;;;;;;3.77;3.67;;;17.90;62.20;;;;;;5067051;28;43447;-70
2023/04/21 07:19:13;;;;;;;3.50;3.40;;;18.00;62.00;;;;;;5063982;27;43619;-70
2023/04/21 07:21:41;;;;;;;3.47;3.43;;;18.10;61.80;;;;;;5066874;28;43484;-70
2023/04/21 07:24:09;;;;;;;3.40;3.33;;;18.10;61.60;;;;;;5067137;28;43390;-70
2023/04/21 07:26:37;;;;;;;3.80;3.70;;;18.00;61.70;;;;;;5063090;28;43451;-71
2023/04/21 07:29:06;;;;;;;3.73;3.63;;;18.00;61.70;;;;;;5063822;28;44055;-69
2023/04/21 07:31:34;;;;;;;3.80;3.70;;;18.00;61.60;;;;;;5059868;28;45036;-69
2023/04/21 07:34:02;;;;;;;3.60;3.50;;;18.00;61.60;;;;;;5058391;28;43421;-69
2023/04/21 07:36:31;;;;;;;3.53;3.43;;;17.90;61.70;;;;;;5061481;28;43487;-69
2023/04/21 07:39:00;;;;;;;3.60;3.50;;;17.90;61.80;;;;;;5066489;28;43908;-70
2023/04/21 07:41:28;;;;;;;3.37;3.27;;;17.90;62.00;;;;;;5067139;28;43908;-69
2023/04/21 07:43:56;;;;;;;3.40;3.30;;;17.90;62.20;;;;;;5065564;28;43855;-70
2023/04/21 07:46:28;;;;;;;3.30;3.20;;;17.90;62.00;;;;;;5068094;28;43934;-69
2023/04/21 07:48:57;;;;;;;3.43;3.40;;;17.80;62.10;;;;;;5062092;28;44235;-69
2023/04/21 07:51:25;;;;;;;3.60;3.50;;;17.80;62.10;;;;;;5062374;28;43454;-69
2023/04/21 07:53:54;;;;;;;3.43;3.33;;;17.80;62.20;;;;;;5066515;28;43435;-69
2023/04/21 07:56:22;;;;;;;3.80;3.70;;;17.80;62.30;;;;;;5062253;28;43644;-70
2023/04/21 07:58:50;;;;;;;3.27;3.27;;;17.80;62.50;;;;;;5064259;28;43846;-69
2023/04/21 08:01:19;;;;;;;3.80;3.70;;;17.90;62.40;;;;;;5049481;28;45053;-69
2023/04/21 08:03:47;;;;;;;3.23;3.23;;;17.90;62.80;;;;;;5063600;28;43492;-71
2023/04/21 08:06:15;;;;;;;3.20;3.10;;;18.00;61.70;;;;;;5066522;28;43352;-70
2023/04/21 08:08:44;;;;;;;3.13;3.13;;;18.00;61.70;;;;;;5066287;28;43598;-69
2023/04/21 08:11:13;;;;;;;3.17;3.17;;;17.90;61.90;;;;;;5065632;28;43957;-70
2023/04/21 08:13:41;;;;;;;2.90;2.90;;;17.90;62.00;;;;;;5066498;28;43423;-70
2023/04/21 08:16:09;;;;;;;2.90;2.90;;;17.90;61.90;;;;;;5066510;28;43450;-69
2023/04/21 08:18:39;;;;;;;3.30;3.30;;;17.90;62.00;;;;;;5060471;28;45472;-69
2023/04/21 08:21:07;;;;;;;3.00;2.93;;;17.90;62.10;;;;;;5062072;28;43755;-69
2023/04/21 08:23:35;;;;;;;2.80;2.80;;;17.90;62.30;;;;;;5061906;28;43458;-70
2023/04/21 08:26:03;;;;;;;3.20;3.20;;;17.80;62.30;;;;;;5064251;28;43530;-70
2023/04/21 08:28:34;;;;;;;2.80;2.80;;;17.80;62.30;;;;;;5064127;28;43602;-71
2023/04/21 08:31:03;;;;;;;3.03;3.03;;;17.80;62.40;;;;;;5060857;28;43456;-70
2023/04/21 08:33:31;;;;;;;2.90;2.90;;;17.80;62.30;;;;;;5066221;28;43402;-71
2023/04/21 08:36:01;;;;;;;2.70;2.70;;;17.80;62.30;;;;;;5066553;28;44016;-70
2023/04/21 08:38:43;;;;;;;3.10;3.10;;;17.80;62.50;;;;;;5061562;28;44032;-70
2023/04/21 08:41:11;;;;;;;2.83;2.83;;;17.80;62.60;;;;;;5059427;28;43507;-70
2023/04/21 08:43:40;;;;;;;3.47;3.37;;;17.80;62.60;;;;;;5064724;28;43422;-69
2023/04/21 08:46:08;;;;;;;3.10;3.10;;;17.90;62.50;;;;;;5066684;28;43397;-69
2023/04/21 08:48:36;;;;;;;3.03;3.03;;;18.00;62.20;;;;;;5065751;28;43862;-69
2023/04/21 08:51:05;;;;;;;3.10;3.10;;;18.00;62.00;;;;;;5065831;28;43418;-69
2023/04/21 08:53:33;;;;;;;2.87;2.87;;;18.00;62.00;;;;;;5064825;28;43466;-69
2023/04/21 08:56:01;;;;;;;2.80;2.70;;;17.90;62.20;;;;;;5068493;28;43434;-68
2023/04/21 08:58:40;;;;;;;2.83;2.83;;;18.00;62.20;;;;;;5067474;28;45894;-70
2023/04/21 09:01:08;;;;;;;2.93;2.93;;;17.90;62.20;;;;;;5068718;28;43493;-69
2023/04/21 09:03:36;;;;;;;2.80;2.80;;;17.90;62.20;;;;;;5068374;28;43464;-69
2023/04/21 09:06:05;;;;;;;2.60;2.60;;;17.90;63.10;;;;;;5069677;28;43359;-70
2023/04/21 09:08:38;;;;;;;2.63;2.63;;;17.80;62.40;;;;;;5069181;28;43845;-70
2023/04/21 09:11:06;;;;;;;2.70;2.70;;;17.80;62.60;;;;;;5067254;28;44644;-70
2023/04/21 09:13:35;;;;;;;2.70;2.60;;;17.80;63.20;;;;;;5067846;28;43818;-70
2023/04/21 09:16:05;;;;;;;2.80;2.80;;;17.80;62.50;;;;;;5062077;28;43600;-70
2023/04/21 09:18:38;;;;;;;2.70;2.60;;;17.80;62.50;;;;;;5059119;28;44085;-69
2023/04/21 09:21:08;;;;;;;2.70;2.70;;;17.80;62.80;;;;;;5061971;28;43398;-69
2023/04/21 09:23:42;;;;;;;3.10;3.00;;;17.80;62.70;;;;;;5057352;28;44007;-70
2023/04/21 09:26:10;;;;;;;2.67;2.67;;;17.80;62.80;;;;;;5062803;28;43508;-70
2023/04/21 09:28:40;;;;;;;2.40;2.40;;;17.80;62.70;;;;;;5065861;28;46412;-69
2023/04/21 09:31:15;;;;;;;2.33;2.33;;;17.80;62.60;;;;;;5061189;28;45222;-70
2023/04/21 09:33:47;;;;;;;2.20;2.20;;;17.80;62.70;;;;;;5058873;28;43456;-70
2023/04/21 09:36:26;;;;;;;2.50;2.50;;;17.80;62.70;;;;;;5060792;28;43898;-70
2023/04/21 09:38:58;;;;;;;2.13;2.13;;;17.80;62.90;;;;;;5059851;28;43623;-69
2023/04/21 09:41:46;;;;;;;2.63;2.50;;;17.70;62.90;;;;;;5059829;28;43450;-69
2023/04/21 09:44:16;;;;;;;2.50;2.50;;;17.80;62.70;;;;;;5067265;28;43867;-69
2023/04/21 09:46:48;;;;;;;2.40;2.40;;;17.90;62.50;;;;;;5068836;28;43428;-70
2023/04/21 09:49:16;;;;;;;2.40;2.40;;;18.00;62.20;;;;;;5061680;28;43590;-70
2023/04/21 09:51:44;;;;;;;2.33;2.33;;;18.00;62.30;;;;;;5069622;28;43977;-70
2023/04/21 09:54:16;;;;;;;2.33;2.33;;;17.90;62.10;;;;;;5068601;28;43951;-69
2023/04/21 09:56:58;;;;;;;2.23;2.23;;;17.90;62.30;;;;;;5063299;28;43948;-69
2023/04/21 09:59:27;;;;;;;2.50;2.50;;;17.90;62.20;;;;;;5066868;28;44960;-70
2023/04/21 10:01:56;;;;;;;2.50;2.50;;;17.90;62.30;;;;;;5063823;28;44449;-69
2023/04/21 10:04:24;;;;;;;2.10;2.10;;;17.90;62.20;;;;;;5060762;28;43367;-70
2023/04/21 10:06:53;;;;;;;2.40;2.23;;;17.80;62.40;;;;;;5061388;28;43449;-69
2023/04/21 10:09:22;;;;;;;2.40;2.30;;;17.80;62.50;;;;;;5060359;28;43950;-70
2023/04/21 10:11:51;;;;;;;2.50;2.30;;;17.80;62.40;;;;;;5060026;28;44502;-70
2023/04/21 10:14:22;;;;;;;2.30;2.20;;;17.80;62.20;;;;;;5068508;28;43456;-70
2023/04/21 10:16:57;;;;;;;2.37;2.27;;;17.80;61.80;;;;;;5066884;28;43590;-70
2023/04/21 10:19:26;;;;;;;2.30;2.30;;;17.80;62.20;;;;;;5067757;28;43865;-70
2023/04/21 10:21:55;;;;;;;2.30;2.20;;;17.80;62.70;;;;;;5067705;28;43446;-70
2023/04/21 10:24:23;;;;;;;2.43;2.43;;;17.80;63.60;;;;;;5068083;28;43378;-70
2023/04/21 10:26:51;;;;;;;2.07;2.07;;;17.80;63.00;;;;;;5065271;28;43821;-70
2023/04/21 10:29:28;;;;;;;2.33;2.30;;;17.90;62.90;;;;;;5066090;28;43846;-70
2023/04/21 10:32:08;;;;;;;2.00;2.00;;;18.00;62.30;;;;;;5066506;28;45305;-70
2023/04/21 10:34:37;;;;;;;2.00;2.00;;;18.00;62.10;;;;;;5061947;28;43464;-69
2023/04/21 10:37:27;;;;;;;2.30;2.20;;;18.00;62.20;;;;;;5062067;28;43471;-69
2023/04/21 10:39:55;;;;;;;2.17;2.17;;;18.00;62.40;;;;;;5067762;28;43914;-69
2023/04/21 10:42:26;;;;;;;2.23;2.13;;;18.00;62.40;;;;;;5066133;28;44701;-70
2023/04/21 10:45:01;;;;;;;2.10;2.10;;;18.00;62.40;;;;;;5051517;28;43389;-70
2023/04/21 10:47:35;;;;;;;2.10;2.00;;;18.00;62.60;;;;;;5062438;28;43820;-70
2023/04/21 10:50:26;;;;;;;2.13;2.13;;;18.00;62.60;;;;;;5071962;28;43968;-70
2023/04/21 10:52:58;;;;;;;2.17;2.10;;;18.00;62.70;;;;;;5065000;28;43870;-70
2023/04/21 10:55:27;;;;;;;2.10;2.10;;;18.00;62.70;;;;;;5066097;28;43458;-70
2023/04/21 10:57:55;;;;;;;1.77;1.77;;;18.00;62.80;;;;;;5062504;28;44065;-70
2023/04/21 11:00:26;;;;;;;2.10;2.10;;;18.00;62.80;;;;;;5066526;28;44079;-69
2023/04/21 11:02:57;;;;;;;2.00;2.00;;;18.00;62.90;;;;;;5066489;28;43497;-69
2023/04/21 11:05:35;;;;;;;1.90;1.90;;;18.00;62.90;;;;;;5052012;28;43435;-70
2023/04/21 11:08:21;;;;;;;1.70;1.70;;;17.90;62.70;;;;;;5065402;28;44085;-69
2023/04/21 11:10:51;;;;;;;1.80;1.80;;;18.00;62.90;;;;;;5066795;28;44000;-70
2023/04/21 11:13:23;;;;;;;2.50;2.17;;;18.00;62.90;;;;;;5066622;28;43885;-69
2023/04/21 11:15:58;;;;;;;3.80;2.83;;;18.00;62.80;;;;;;5067296;28;44024;-69
2023/04/21 11:18:41;;;;;;;4.97;3.10;;;18.00;62.60;;;;;;5063476;28;43628;-70
2023/04/21 11:21:10;;;;;;;6.20;3.33;;;18.00;62.70;;;;;;5065303;28;45642;-70
2023/04/21 11:23:41;;;;;;;7.50;4.13;;;18.00;62.90;;;;;;5065311;28;43409;-70
2023/04/21 11:26:09;;;;;;;6.27;4.00;;;18.00;62.70;;;;;;5067403;28;43454;-70
2023/04/21 11:28:37;;;;;;;11.73;4.87;;;18.10;62.40;;;;;;5067315;28;43934;-70
2023/04/21 11:31:05;;;;;;;6.67;4.30;;;18.20;62.00;;;;;;5066871;28;43579;-70
2023/04/21 11:33:36;;;;;;;8.77;4.37;;;18.20;61.90;;;;;;5066487;28;43482;-69
2023/04/21 11:36:06;;;;;;;6.50;3.93;;;18.20;61.90;;;;;;5067090;28;43353;-69
2023/04/21 11:38:38;;;;;;;7.77;4.27;;;18.20;62.30;;;;;;5065672;28;43637;-69
2023/04/21 11:41:06;;;;;;;7.67;3.80;;;18.20;62.20;;;;;;5060296;28;43751;-70
2023/04/21 11:43:40;;;;;;;4.57;3.43;;;18.10;62.10;;;;;;5059164;28;43456;-69
2023/04/21 11:46:17;;;;;;;4.77;3.57;;;18.10;62.20;;;;;;5066091;28;43508;-69
2023/04/21 11:48:47;;;;;;;6.90;3.50;;;18.10;62.50;;;;;;5062175;28;43371;-69
2023/04/21 11:51:18;;;;;;;9.33;3.77;;;18.00;62.60;;;;;;5063556;28;43893;-70
2023/04/21 11:53:49;;;;;;;4.60;3.53;;;18.00;62.70;;;;;;5059459;28;44050;-70
2023/04/21 11:56:18;;;;;;;4.47;3.53;;;18.00;62.80;;;;;;5053024;28;43581;-69
2023/04/21 11:58:46;;;;;;;4.73;3.70;;;18.00;62.90;;;;;;5060757;28;43414;-69
2023/04/21 12:01:16;;;;;;;5.77;3.73;;;17.90;63.60;;;;;;5057315;28;43945;-68
2023/04/21 12:03:51;;;;;;;6.33;3.60;;;17.90;63.00;;;;;;5058873;28;43538;-69
2023/04/21 12:06:24;;;;;;;7.70;4.03;;;17.90;63.20;;;;;;5058510;28;43404;-70
2023/04/21 12:08:57;;;;;;;7.80;4.20;;;17.90;63.20;;;;;;5060347;28;43417;-70
2023/04/21 12:11:25;;;;;;;5.63;3.53;;;18.00;63.00;;;;;;5056257;28;43958;-69
2023/04/21 12:13:53;;;;;;;4.90;3.60;;;18.00;62.80;;;;;;5060306;28;44119;-70
2023/04/21 12:16:21;;;;;;;4.70;3.23;;;18.00;62.80;;;;;;5066654;28;43407;-70
2023/04/21 12:18:49;;;;;;;3.70;3.40;;;18.00;63.00;;;;;;5061102;28;43536;-69
2023/04/21 12:21:17;;;;;;;5.70;3.40;;;17.90;63.00;;;;;;5065866;28;43893;-70
2023/04/21 12:23:46;;;;;;;4.23;3.23;;;17.90;62.90;;;;;;5054495;28;44044;-69
2023/04/21 12:26:14;;;;;;;4.53;3.23;;;17.90;63.00;;;;;;5065974;28;44010;-70
2023/04/21 12:28:42;;;;;;;4.33;3.10;;;18.00;63.20;;;;;;5066172;28;43577;-70
2023/04/21 12:31:10;;;;;;;6.70;3.60;;;17.90;63.10;;;;;;5057171;28;46093;-70
2023/04/21 12:33:38;;;;;;;4.53;3.30;;;17.90;63.20;;;;;;5056767;28;43969;-69
2023/04/21 12:36:06;;;;;;;3.27;2.97;;;17.90;63.40;;;;;;5061121;28;43410;-69
2023/04/21 12:38:34;;;;;;;5.77;3.23;;;17.90;63.40;;;;;;5066499;28;43447;-69
2023/04/21 12:41:03;;;;;;;5.00;3.20;;;18.00;63.20;;;;;;5064220;28;45922;-70
2023/04/21 12:43:31;;;;;;;4.40;3.00;;;18.00;62.90;;;;;;5062757;28;43482;-70
2023/04/21 12:46:00;;;;;;;3.10;2.47;;;18.10;62.90;;;;;;5063071;28;43429;-68
2023/04/21 12:48:27;;;;;;;3.57;3.27;;;18.00;62.80;;;;;;5054814;28;43460;-69
2023/04/21 12:50:55;;;;;;;2.67;2.50;;;18.00;63.10;;;;;;5059301;28;46019;-70
2023/04/21 12:53:23;;;;;;;5.10;2.80;;;18.00;63.10;;;;;;5057610;28;45033;-70
2023/04/21 12:55:51;;;;;;;2.80;2.60;;;18.00;63.00;;;;;;5065502;28;44055;-70
2023/04/21 12:58:33;;;;;;;2.93;2.70;;;17.90;63.00;;;;;;5059379;28;43514;-70